createdAt,value
2018-09-14T00:00:46.103Z,6.40
2018-09-14T00:01:46.124Z,6.00
2018-09-14T00:02:46.133Z,7.40
2018-09-14T00:03:46.133Z,6.30
2018-09-14T00:04:46.145Z,5.90
2018-09-14T00:05:46.167Z,5.70
2018-09-14T00:06:46.147Z,5.70
2018-09-14T00:07:46.156Z,6.00
2018-09-14T00:08:46.204Z,6.00
2018-09-14T00:09:46.214Z,6.90
2018-09-14T00:10:46.321Z,6.10
2018-09-14T00:11:46.212Z,5.70
2018-09-14T00:12:46.220Z,5.70
2018-09-14T00:13:46.203Z,5.70
2018-09-14T00:14:46.294Z,5.80
2018-09-14T00:15:46.229Z,6.00
2018-09-14T00:16:46.271Z,5.90
2018-09-14T00:17:46.269Z,6.20
2018-09-14T00:18:46.276Z,6.20
2018-09-14T00:19:46.272Z,6.10
2018-09-14T00:20:46.325Z,5.80
2018-09-14T00:21:46.289Z,6.40
2018-09-14T00:22:46.314Z,6.10
2018-09-14T00:23:46.326Z,6.00
2018-09-14T00:24:46.318Z,6.40
2018-09-14T00:25:46.341Z,6.40
2018-09-14T00:26:46.349Z,5.90
2018-09-14T00:27:46.359Z,5.60
2018-09-14T00:28:46.352Z,5.50
2018-09-14T00:29:46.371Z,5.80
2018-09-14T00:30:46.399Z,5.40
2018-09-14T00:31:46.518Z,6.10
2018-09-14T00:32:46.607Z,5.60
2018-09-14T00:33:46.396Z,6.10
2018-09-14T00:34:46.444Z,6.00
2018-09-14T00:35:46.431Z,5.50
2018-09-14T00:36:46.443Z,5.90
2018-09-14T00:37:46.455Z,5.60
2018-09-14T00:38:46.528Z,5.70
2018-09-14T00:39:46.452Z,5.70
2018-09-14T00:40:46.516Z,5.30
2018-09-14T00:41:46.506Z,5.30
2018-09-14T00:42:46.581Z,5.60
2018-09-14T00:43:46.540Z,5.30
2018-09-14T00:44:46.512Z,5.10
2018-09-14T00:45:46.569Z,5.40
2018-09-14T00:46:46.558Z,5.20
2018-09-14T00:47:46.547Z,4.50
2018-09-14T00:48:46.568Z,6.10
2018-09-14T00:49:46.589Z,4.60
2018-09-14T00:50:46.555Z,6.10
2018-09-14T00:51:46.568Z,5.60
2018-09-14T00:52:46.629Z,6.30
2018-09-14T00:53:46.593Z,7.80
2018-09-14T00:54:46.631Z,6.10
2018-09-14T00:55:46.674Z,6.00
2018-09-14T00:56:46.632Z,5.40
2018-09-14T00:57:46.672Z,6.30
2018-09-14T00:58:46.647Z,5.40
2018-09-14T00:59:46.658Z,6.20
2018-09-14T01:00:46.657Z,5.40
2018-09-14T01:01:46.658Z,4.60
2018-09-14T01:02:46.718Z,5.00
2018-09-14T01:03:46.755Z,5.70
2018-09-14T01:04:46.692Z,5.10
2018-09-14T01:05:46.730Z,5.10
2018-09-14T01:06:46.743Z,4.90
2018-09-14T01:07:46.758Z,5.00
2018-09-14T01:08:46.771Z,5.60
2018-09-14T01:09:46.779Z,5.10
2018-09-14T01:10:46.779Z,6.00
2018-09-14T01:11:46.779Z,5.00
2018-09-14T01:12:46.776Z,4.90
2018-09-14T01:13:46.782Z,4.50
2018-09-14T01:14:46.848Z,4.20
2018-09-14T01:15:46.810Z,6.80
2018-09-14T01:16:46.819Z,6.60
2018-09-14T01:17:46.843Z,5.60
2018-09-14T01:18:46.847Z,4.30
2018-09-14T01:19:46.873Z,4.80
2018-09-14T01:20:46.863Z,4.00
2018-09-14T01:21:46.885Z,3.60
2018-09-14T01:22:46.871Z,4.20
2018-09-14T01:23:46.895Z,4.00
2018-09-14T01:24:46.919Z,3.40
2018-09-14T01:25:46.918Z,3.60
2018-09-14T01:26:46.924Z,3.70
2018-09-14T01:27:46.935Z,2.80
2018-09-14T01:28:46.942Z,3.60
2018-09-14T01:29:46.964Z,3.80
2018-09-14T01:30:46.945Z,4.50
2018-09-14T01:31:46.972Z,5.70
2018-09-14T01:32:46.993Z,3.20
2018-09-14T01:33:46.971Z,4.30
2018-09-14T01:34:46.993Z,3.80
2018-09-14T01:35:47.011Z,2.90
2018-09-14T01:36:46.995Z,3.20
2018-09-14T01:37:47.063Z,2.90
2018-09-14T01:38:47.027Z,3.50
2018-09-14T01:39:47.070Z,4.80
2018-09-14T01:40:47.039Z,4.40
2018-09-14T01:41:47.066Z,4.50
2018-09-14T01:42:47.091Z,4.20
2018-09-14T01:43:47.092Z,4.10
2018-09-14T01:44:47.119Z,3.80
2018-09-14T01:45:47.094Z,3.80
2018-09-14T01:46:47.108Z,4.20
2018-09-14T01:47:47.139Z,6.80
2018-09-14T01:48:47.119Z,6.50
2018-09-14T01:49:47.149Z,4.30
2018-09-14T01:50:47.178Z,3.80
2018-09-14T01:51:47.172Z,4.20
2018-09-14T01:52:47.168Z,4.30
2018-09-14T01:53:47.173Z,6.30
2018-09-14T01:54:47.238Z,3.80
2018-09-14T01:55:47.192Z,3.80
2018-09-14T01:56:47.233Z,3.90
2018-09-14T01:57:47.223Z,4.00
2018-09-14T01:58:47.235Z,3.70
2018-09-14T01:59:47.240Z,3.50
2018-09-14T02:00:47.218Z,4.60
2018-09-14T02:01:47.259Z,3.70
2018-09-14T02:02:47.267Z,4.40
2018-09-14T02:03:47.293Z,4.10
2018-09-14T02:04:47.268Z,4.90
2018-09-14T02:05:47.305Z,3.60
2018-09-14T02:06:47.304Z,5.50
2018-09-14T02:07:47.321Z,3.60
2018-09-14T02:08:47.344Z,4.20
2018-09-14T02:09:47.358Z,3.60
2018-09-14T02:10:47.312Z,4.80
2018-09-14T02:11:47.343Z,3.60
2018-09-14T02:12:47.402Z,3.80
2018-09-14T02:13:47.348Z,3.30
2018-09-14T02:14:47.402Z,3.70
2018-09-14T02:15:47.361Z,3.70
2018-09-14T02:16:47.392Z,2.40
2018-09-14T02:17:47.413Z,2.40
2018-09-14T02:18:47.430Z,2.30
2018-09-14T02:19:47.463Z,2.90
2018-09-14T02:20:47.456Z,2.50
2018-09-14T02:21:47.435Z,2.50
2018-09-14T02:22:47.452Z,2.30
2018-09-14T02:23:47.449Z,2.40
2018-09-14T02:24:47.457Z,3.50
2018-09-14T02:25:47.501Z,2.30
2018-09-14T02:26:47.558Z,3.20
2018-09-14T02:27:47.486Z,2.50
2018-09-14T02:28:47.500Z,2.80
2018-09-14T02:29:47.521Z,2.80
2018-09-14T02:30:47.581Z,2.50
2018-09-14T02:31:47.552Z,2.60
2018-09-14T02:32:47.537Z,4.20
2018-09-14T02:33:47.554Z,2.60
2018-09-14T02:34:47.574Z,2.90
2018-09-14T02:35:47.609Z,3.40
2018-09-14T02:36:47.586Z,3.10
2018-09-14T02:37:47.608Z,2.60
2018-09-14T02:38:47.602Z,2.70
2018-09-14T02:39:47.625Z,2.40
2018-09-14T02:40:47.625Z,3.70
2018-09-14T02:41:47.672Z,2.70
2018-09-14T02:42:47.647Z,2.80
2018-09-14T02:43:47.635Z,3.20
2018-09-14T02:44:47.656Z,2.90
2018-09-14T02:45:47.717Z,3.40
2018-09-14T02:46:47.698Z,3.50
2018-09-14T02:47:47.735Z,4.50
2018-09-14T02:48:47.721Z,3.00
2018-09-14T02:49:47.722Z,3.20
2018-09-14T02:50:47.711Z,3.40
2018-09-14T02:51:47.736Z,3.20
2018-09-14T02:52:47.795Z,3.40
2018-09-14T02:53:47.744Z,3.60
2018-09-14T02:54:47.763Z,4.40
2018-09-14T02:55:47.788Z,4.70
2018-09-14T02:56:47.766Z,4.60
2018-09-14T02:57:47.797Z,4.40
2018-09-14T02:58:47.781Z,4.00
2018-09-14T02:59:47.812Z,4.60
2018-09-14T03:00:47.839Z,4.40
2018-09-14T03:01:47.823Z,4.30
2018-09-14T03:02:47.827Z,5.00
2018-09-14T03:03:47.885Z,4.70
2018-09-14T03:04:47.837Z,4.30
2018-09-14T03:05:47.886Z,4.80
2018-09-14T03:06:47.877Z,4.80
2018-09-14T03:07:47.896Z,5.10
2018-09-14T03:08:47.909Z,5.50
2018-09-14T03:09:47.936Z,5.50
2018-09-14T03:10:47.932Z,6.60
2018-09-14T03:11:47.924Z,6.00
2018-09-14T03:12:47.936Z,7.20
2018-09-14T03:13:47.925Z,7.60
2018-09-14T03:14:47.944Z,6.50
2018-09-14T03:15:47.969Z,7.40
2018-09-14T03:16:47.979Z,7.60
2018-09-14T03:17:48.016Z,7.80
2018-09-14T03:18:47.997Z,7.70
2018-09-14T03:19:48.010Z,7.60
2018-09-14T03:20:48.032Z,8.10
2018-09-14T03:21:48.093Z,7.10
2018-09-14T03:22:48.019Z,7.00
2018-09-14T03:23:48.032Z,7.40
2018-09-14T03:24:48.043Z,7.50
2018-09-14T03:25:48.027Z,8.10
2018-09-14T03:26:48.113Z,7.40
2018-09-14T03:27:48.071Z,7.60
2018-09-14T03:28:48.115Z,8.20
2018-09-14T03:29:48.069Z,8.30
2018-09-14T03:30:48.126Z,8.70
2018-09-14T03:31:48.674Z,8.60
2018-09-14T03:32:48.107Z,7.90
2018-09-14T03:33:48.145Z,8.80
2018-09-14T03:34:48.123Z,8.30
2018-09-14T03:35:48.145Z,8.70
2018-09-14T03:36:48.152Z,9.70
2018-09-14T03:37:48.149Z,9.50
2018-09-14T03:38:48.202Z,9.90
2018-09-14T03:39:48.207Z,9.20
2018-09-14T03:40:48.180Z,9.40
2018-09-14T03:41:48.235Z,9.10
2018-09-14T03:42:48.245Z,9.60
2018-09-14T03:43:48.207Z,8.20
2018-09-14T03:44:48.255Z,8.80
2018-09-14T03:45:48.245Z,8.10
2018-09-14T03:46:48.272Z,9.50
2018-09-14T03:47:48.252Z,9.20
2018-09-14T03:48:48.289Z,9.30
2018-09-14T03:49:48.395Z,9.60
2018-09-14T03:50:48.285Z,9.50
2018-09-14T03:51:48.303Z,8.60
2018-09-14T03:52:48.309Z,9.60
2018-09-14T03:53:48.332Z,8.70
2018-09-14T03:54:48.583Z,8.70
2018-09-14T03:55:48.346Z,9.10
2018-09-14T03:56:48.365Z,9.60
2018-09-14T03:57:48.493Z,9.50
2018-09-14T03:58:48.339Z,8.40
2018-09-14T03:59:48.372Z,8.40
2018-09-14T04:00:48.384Z,8.60
2018-09-14T04:01:48.400Z,7.50
2018-09-14T04:02:48.384Z,8.40
2018-09-14T04:03:48.444Z,7.40
2018-09-14T04:04:48.535Z,8.10
2018-09-14T04:05:48.434Z,7.20
2018-09-14T04:06:48.455Z,8.00
2018-09-14T04:07:48.732Z,7.30
2018-09-14T04:08:48.447Z,6.90
2018-09-14T04:09:48.476Z,7.30
2018-09-14T04:10:48.501Z,7.50
2018-09-14T04:11:48.493Z,7.70
2018-09-14T04:12:48.482Z,7.80
2018-09-14T04:13:48.553Z,7.30
2018-09-14T04:14:48.508Z,6.90
2018-09-14T04:15:48.525Z,7.60
2018-09-14T04:16:48.562Z,8.50
2018-09-14T04:17:48.726Z,8.90
2018-09-14T04:18:48.547Z,7.20
2018-09-14T04:19:48.558Z,7.10
2018-09-14T04:20:48.566Z,6.70
2018-09-14T04:21:48.593Z,7.10
2018-09-14T04:22:48.601Z,6.60
2018-09-14T04:23:48.663Z,7.30
2018-09-14T04:24:48.639Z,6.50
2018-09-14T04:25:48.676Z,6.90
2018-09-14T04:26:48.616Z,6.40
2018-09-14T04:27:48.640Z,7.10
2018-09-14T04:28:48.634Z,6.50
2018-09-14T04:29:48.691Z,6.20
2018-09-14T04:30:48.654Z,7.50
2018-09-14T04:31:48.673Z,6.80
2018-09-14T04:32:48.668Z,6.40
2018-09-14T04:33:48.826Z,5.70
2018-09-14T04:34:48.740Z,6.00
2018-09-14T04:35:48.707Z,6.20
2018-09-14T04:36:48.749Z,5.80
2018-09-14T04:37:48.779Z,5.30
2018-09-14T04:38:48.777Z,6.60
2018-09-14T04:39:48.773Z,6.10
2018-09-14T04:40:48.786Z,5.80
2018-09-14T04:41:48.753Z,6.60
2018-09-14T04:42:48.808Z,7.10
2018-09-14T04:43:48.801Z,7.20
2018-09-14T04:44:48.857Z,7.80
2018-09-14T04:45:48.811Z,8.10
2018-09-14T04:46:48.808Z,7.10
2018-09-14T04:47:48.831Z,5.20
2018-09-14T04:48:48.849Z,6.10
2018-09-14T04:49:48.942Z,5.70
2018-09-14T04:50:48.847Z,4.70
2018-09-14T04:51:48.865Z,4.60
2018-09-14T04:52:48.909Z,4.60
2018-09-14T04:53:48.982Z,4.70
2018-09-14T04:54:48.884Z,4.90
2018-09-14T04:55:48.926Z,4.90
2018-09-14T04:56:49.017Z,6.90
2018-09-14T04:57:48.931Z,4.80
2018-09-14T04:58:48.932Z,5.00
2018-09-14T04:59:48.953Z,5.50
2018-09-14T05:00:48.949Z,5.50
2018-09-14T05:01:48.976Z,6.90
2018-09-14T05:02:48.973Z,5.80
2018-09-14T05:03:49.024Z,5.50
2018-09-14T05:04:48.985Z,5.00
2018-09-14T05:05:48.993Z,6.50
2018-09-14T05:06:49.019Z,6.50
2018-09-14T05:07:49.029Z,5.10
2018-09-14T05:08:49.066Z,5.20
2018-09-14T05:09:49.028Z,6.00
2018-09-14T05:10:49.081Z,5.70
2018-09-14T05:11:49.091Z,5.80
2018-09-14T05:12:49.063Z,6.70
2018-09-14T05:13:49.089Z,5.50
2018-09-14T05:14:49.101Z,5.50
2018-09-14T05:15:49.098Z,6.50
2018-09-14T05:16:49.429Z,6.60
2018-09-14T05:17:49.144Z,6.70
2018-09-14T05:18:49.124Z,5.90
2018-09-14T05:19:49.147Z,5.40
2018-09-14T05:20:49.181Z,5.90
2018-09-14T05:21:49.212Z,6.90
2018-09-14T05:22:49.200Z,5.70
2018-09-14T05:23:49.220Z,6.70
2018-09-14T05:24:49.235Z,6.80
2018-09-14T05:25:49.228Z,6.40
2018-09-14T05:26:49.199Z,6.80
2018-09-14T05:27:49.256Z,6.90
2018-09-14T05:28:49.286Z,6.80
2018-09-14T05:29:49.301Z,8.90
2018-09-14T05:30:49.254Z,8.50
2018-09-14T05:31:49.259Z,8.60
2018-09-14T05:32:49.280Z,8.20
2018-09-14T05:33:49.303Z,8.70
2018-09-14T05:34:49.272Z,7.40
2018-09-14T05:35:49.291Z,9.40
2018-09-14T05:36:49.311Z,9.30
2018-09-14T05:37:49.328Z,8.70
2018-09-14T05:38:49.327Z,10.40
2018-09-14T05:39:49.372Z,8.00
2018-09-14T05:40:49.426Z,9.40
2018-09-14T05:41:49.350Z,8.30
2018-09-14T05:42:49.393Z,8.80
2018-09-14T05:43:49.359Z,9.70
2018-09-14T05:44:49.398Z,9.10
2018-09-14T05:45:49.455Z,9.20
2018-09-14T05:46:49.426Z,9.00
2018-09-14T05:47:49.427Z,9.10
2018-09-14T05:48:49.766Z,9.50
2018-09-14T05:49:49.451Z,9.90
2018-09-14T05:50:49.496Z,9.70
2018-09-14T05:51:49.570Z,9.10
2018-09-14T05:52:49.466Z,11.10
2018-09-14T05:53:49.471Z,8.90
2018-09-14T05:54:49.493Z,10.80
2018-09-14T05:55:49.527Z,10.50
2018-09-14T05:56:49.496Z,10.80
2018-09-14T05:57:49.511Z,10.00
2018-09-14T05:58:49.614Z,12.50
2018-09-14T05:59:49.507Z,9.90
2018-09-14T06:00:49.553Z,9.10
2018-09-14T06:01:49.595Z,9.20
2018-09-14T06:02:49.578Z,9.20
2018-09-14T06:03:49.561Z,9.20
2018-09-14T06:04:49.581Z,10.40
2018-09-14T06:05:49.710Z,11.70
2018-09-14T06:06:49.600Z,9.70
2018-09-14T06:07:49.610Z,12.30
2018-09-14T06:08:49.631Z,8.80
2018-09-14T06:09:49.640Z,10.60
2018-09-14T06:10:49.663Z,11.10
2018-09-14T06:11:49.635Z,10.60
2018-09-14T06:12:49.724Z,7.80
2018-09-14T06:13:49.649Z,10.00
2018-09-14T06:14:49.680Z,8.10
2018-09-14T06:15:49.707Z,11.10
2018-09-14T06:16:49.685Z,11.20
2018-09-14T06:17:49.712Z,8.70
2018-09-14T06:18:49.768Z,9.00
2018-09-14T06:19:49.769Z,10.10
2018-09-14T06:20:49.748Z,8.80
2018-09-14T06:21:49.739Z,9.40
2018-09-14T06:22:49.778Z,7.60
2018-09-14T06:23:49.769Z,8.60
2018-09-14T06:24:49.788Z,9.00
2018-09-14T06:25:49.818Z,9.30
2018-09-14T06:26:49.806Z,8.50
2018-09-14T06:27:49.831Z,8.60
2018-09-14T06:28:49.811Z,9.20
2018-09-14T06:29:49.891Z,8.70
2018-09-14T06:30:49.877Z,8.80
2018-09-14T06:31:49.856Z,9.30
2018-09-14T06:32:49.862Z,11.10
2018-09-14T06:33:49.868Z,8.60
2018-09-14T06:34:49.944Z,8.50
2018-09-14T06:35:49.938Z,8.10
2018-09-14T06:36:49.904Z,10.50
2018-09-14T06:37:49.916Z,8.90
2018-09-14T06:38:49.932Z,7.20
2018-09-14T06:39:49.965Z,7.10
2018-09-14T06:40:50.055Z,8.20
2018-09-14T06:41:50.020Z,7.80
2018-09-14T06:42:49.959Z,7.90
2018-09-14T06:43:50.008Z,8.50
2018-09-14T06:44:50.045Z,11.00
2018-09-14T06:45:50.010Z,8.70
2018-09-14T06:46:49.985Z,7.80
2018-09-14T06:47:50.011Z,7.90
2018-09-14T06:48:50.067Z,9.60
2018-09-14T06:49:50.036Z,8.60
2018-09-14T06:50:50.046Z,6.90
2018-09-14T06:51:50.044Z,8.10
2018-09-14T06:52:50.067Z,8.00
2018-09-14T06:53:50.108Z,12.30
2018-09-14T06:54:50.094Z,7.30
2018-09-14T06:55:50.139Z,5.80
2018-09-14T06:56:50.150Z,12.40
2018-09-14T06:57:50.154Z,19.60
2018-09-14T06:58:50.148Z,8.60
2018-09-14T06:59:50.158Z,9.00
2018-09-14T07:00:50.155Z,8.70
2018-09-14T07:01:50.147Z,11.00
2018-09-14T07:02:50.160Z,8.60
2018-09-14T07:03:50.256Z,8.60
2018-09-14T07:04:50.185Z,10.80
2018-09-14T07:05:50.226Z,9.20
2018-09-14T07:06:50.218Z,11.50
2018-09-14T07:07:50.219Z,13.20
2018-09-14T07:08:50.257Z,16.20
2018-09-14T07:09:50.248Z,12.30
2018-09-14T07:10:50.318Z,10.00
2018-09-14T07:11:50.424Z,10.90
2018-09-14T07:12:50.383Z,10.50
2018-09-14T07:13:50.284Z,11.80
2018-09-14T07:14:50.296Z,10.40
2018-09-14T07:15:50.340Z,10.20
2018-09-14T07:16:50.321Z,10.30
2018-09-14T07:17:50.308Z,10.30
2018-09-14T07:18:50.328Z,8.10
2018-09-14T07:19:50.340Z,10.10
2018-09-14T07:20:50.387Z,9.10
2018-09-14T07:21:50.498Z,16.10
2018-09-14T07:22:50.378Z,10.90
2018-09-14T07:23:50.384Z,7.00
2018-09-14T07:24:50.536Z,7.10
2018-09-14T07:25:50.478Z,6.80
2018-09-14T07:26:50.437Z,6.50
2018-09-14T07:27:50.463Z,6.60
2018-09-14T07:28:50.580Z,6.90
2018-09-14T07:29:50.539Z,6.80
2018-09-14T07:30:50.528Z,7.10
2018-09-14T07:31:50.562Z,8.90
2018-09-14T07:32:50.497Z,8.20
2018-09-14T07:33:50.532Z,5.90
2018-09-14T07:34:50.506Z,7.70
2018-09-14T07:35:50.550Z,8.20
2018-09-14T07:36:50.537Z,9.90
2018-09-14T07:37:50.528Z,9.50
2018-09-14T07:38:50.568Z,8.30
2018-09-14T07:39:50.557Z,9.50
2018-09-14T07:40:50.632Z,7.60
2018-09-14T07:41:50.638Z,7.20
2018-09-14T07:42:50.584Z,8.20
2018-09-14T07:43:50.611Z,11.50
2018-09-14T07:44:50.623Z,7.90
2018-09-14T07:45:50.708Z,8.00
2018-09-14T07:46:50.635Z,7.50
2018-09-14T07:47:50.681Z,7.00
2018-09-14T07:48:50.660Z,7.80
2018-09-14T07:49:50.708Z,8.60
2018-09-14T07:50:50.698Z,7.50
2018-09-14T07:51:50.701Z,8.50
2018-09-14T07:52:50.728Z,8.40
2018-09-14T07:53:50.718Z,11.90
2018-09-14T07:54:50.731Z,35.00
2018-09-14T07:55:50.721Z,16.10
2018-09-14T07:56:50.790Z,7.20
2018-09-14T07:57:51.331Z,7.70
2018-09-14T07:58:50.908Z,6.80
2018-09-14T07:59:50.840Z,7.30
2018-09-14T08:00:50.794Z,7.90
2018-09-14T08:01:51.663Z,8.80
2018-09-14T08:02:50.821Z,8.80
2018-09-14T08:03:50.841Z,7.40
2018-09-14T08:04:50.854Z,8.90
2018-09-14T08:05:50.844Z,9.20
2018-09-14T08:06:50.860Z,7.80
2018-09-14T08:07:50.901Z,8.40
2018-09-14T08:08:50.881Z,6.70
2018-09-14T08:09:50.880Z,7.50
2018-09-14T08:10:50.888Z,7.40
2018-09-14T08:11:51.008Z,8.30
2018-09-14T08:12:50.946Z,7.20
2018-09-14T08:13:50.940Z,9.60
2018-09-14T08:14:51.277Z,8.00
2018-09-14T08:15:50.972Z,7.70
2018-09-14T08:16:53.551Z,7.20
2018-09-14T08:17:51.125Z,8.10
2018-09-14T08:18:51.021Z,7.20
2018-09-14T08:19:51.033Z,6.70
2018-09-14T08:20:51.915Z,6.90
2018-09-14T08:21:52.233Z,6.10
2018-09-14T08:22:51.083Z,6.80
2018-09-14T08:23:51.053Z,9.00
2018-09-14T08:24:51.203Z,7.40
2018-09-14T08:25:51.872Z,8.30
2018-09-14T08:26:52.634Z,8.20
2018-09-14T08:27:51.257Z,6.70
2018-09-14T08:28:51.375Z,6.30
2018-09-14T08:29:51.374Z,7.60
2018-09-14T08:30:51.259Z,8.70
2018-09-14T08:31:51.157Z,6.50
2018-09-14T08:32:51.634Z,7.10
2018-09-14T08:33:51.535Z,6.30
2018-09-14T08:34:51.383Z,7.00
2018-09-14T08:35:51.311Z,5.00
2018-09-14T08:36:51.238Z,6.50
2018-09-14T08:37:51.221Z,6.90
2018-09-14T08:38:51.344Z,5.20
2018-09-14T08:39:51.249Z,5.70
2018-09-14T08:40:51.333Z,5.70
2018-09-14T08:41:51.250Z,5.50
2018-09-14T08:42:51.264Z,6.30
2018-09-14T08:43:51.388Z,5.10
2018-09-14T08:44:51.515Z,7.50
2018-09-14T08:45:51.320Z,5.20
2018-09-14T08:46:51.357Z,5.70
2018-09-14T08:47:51.394Z,6.80
2018-09-14T08:48:51.348Z,6.00
2018-09-14T08:49:51.349Z,6.80
2018-09-14T08:50:51.360Z,7.80
2018-09-14T08:51:51.395Z,5.20
2018-09-14T08:52:51.407Z,7.00
2018-09-14T08:53:51.401Z,6.50
2018-09-14T08:54:51.420Z,8.10
2018-09-14T08:55:51.455Z,7.10
2018-09-14T08:56:51.451Z,5.50
2018-09-14T08:57:51.690Z,7.00
2018-09-14T08:58:51.498Z,6.00
2018-09-14T08:59:52.153Z,6.80
2018-09-14T09:00:51.472Z,7.20
2018-09-14T09:01:51.594Z,6.40
2018-09-14T09:02:51.539Z,6.30
2018-09-14T09:03:51.584Z,7.40
2018-09-14T09:04:51.549Z,5.80
2018-09-14T09:05:52.198Z,7.00
2018-09-14T09:06:51.578Z,6.50
2018-09-14T09:07:51.598Z,7.80
2018-09-14T09:08:51.613Z,7.50
2018-09-14T09:09:51.586Z,6.30
2018-09-14T09:10:51.588Z,8.30
2018-09-14T09:11:51.621Z,7.90
2018-09-14T09:12:51.674Z,8.70
2018-09-14T09:13:51.647Z,5.90
2018-09-14T09:14:51.673Z,7.10
2018-09-14T09:15:51.676Z,7.90
2018-09-14T09:16:51.658Z,7.00
2018-09-14T09:17:51.798Z,7.10
2018-09-14T09:18:51.771Z,6.40
2018-09-14T09:19:51.770Z,8.40
2018-09-14T09:20:51.726Z,7.30
2018-09-14T09:21:51.711Z,7.20
2018-09-14T09:22:51.754Z,7.20
2018-09-14T09:23:51.834Z,8.60
2018-09-14T09:24:51.792Z,7.00
2018-09-14T09:25:51.799Z,7.30
2018-09-14T09:26:51.831Z,8.20
2018-09-14T09:27:51.799Z,7.80
2018-09-14T09:28:51.853Z,7.00
2018-09-14T09:29:51.812Z,6.60
2018-09-14T09:30:51.858Z,7.50
2018-09-14T09:31:51.865Z,7.90
2018-09-14T09:32:51.889Z,5.60
2018-09-14T09:33:51.889Z,6.80
2018-09-14T09:34:51.900Z,8.30
2018-09-14T09:35:51.920Z,6.60
2018-09-14T09:36:51.908Z,6.40
2018-09-14T09:38:00.100Z,6.30
2018-09-14T09:38:53.059Z,6.50
2018-09-14T09:39:52.012Z,6.80
2018-09-14T09:40:51.946Z,7.90
2018-09-14T09:41:51.982Z,5.80
2018-09-14T09:42:51.989Z,5.70
2018-09-14T09:43:52.010Z,7.50
2018-09-14T09:44:52.041Z,5.50
2018-09-14T09:45:52.114Z,7.60
2018-09-14T09:46:52.042Z,6.00
2018-09-14T09:47:52.953Z,6.90
2018-09-14T09:48:52.155Z,7.40
2018-09-14T09:49:52.055Z,7.60
2018-09-14T09:50:52.191Z,6.90
2018-09-14T09:51:52.083Z,7.80
2018-09-14T09:52:52.109Z,7.00
2018-09-14T09:53:52.130Z,6.20
2018-09-14T09:54:52.135Z,6.60
2018-09-14T09:55:52.158Z,6.90
2018-09-14T09:56:52.135Z,5.40
2018-09-14T09:57:52.189Z,5.00
2018-09-14T09:58:52.167Z,7.10
2018-09-14T09:59:52.179Z,7.20
2018-09-14T10:00:52.217Z,6.10
2018-09-14T10:01:52.400Z,7.60
2018-09-14T10:02:52.248Z,5.60
2018-09-14T10:03:52.497Z,7.80
2018-09-14T10:04:52.258Z,7.00
2018-09-14T10:05:52.242Z,6.10
2018-09-14T10:06:52.302Z,7.00
2018-09-14T10:07:52.515Z,7.70
2018-09-14T10:08:52.322Z,7.90
2018-09-14T10:09:52.395Z,6.70
2018-09-14T10:10:52.326Z,7.70
2018-09-14T10:11:52.432Z,13.80
2018-09-14T10:12:52.369Z,12.90
2018-09-14T10:13:52.425Z,10.10
2018-09-14T10:14:52.380Z,8.00
2018-09-14T10:15:52.377Z,9.50
2018-09-14T10:16:52.385Z,8.10
2018-09-14T10:17:52.408Z,7.20
2018-09-14T10:18:52.442Z,7.00
2018-09-14T10:19:52.441Z,6.20
2018-09-14T10:20:52.471Z,8.40
2018-09-14T10:21:52.544Z,7.70
2018-09-14T10:22:52.478Z,7.90
2018-09-14T10:23:52.777Z,7.30
2018-09-14T10:24:52.712Z,7.80
2018-09-14T10:25:52.502Z,8.50
2018-09-14T10:26:52.548Z,7.60
2018-09-14T10:27:52.514Z,6.80
2018-09-14T10:28:52.621Z,6.30
2018-09-14T10:29:52.521Z,8.90
2018-09-14T10:30:52.662Z,7.60
2018-09-14T10:31:53.058Z,7.50
2018-09-14T10:32:52.584Z,8.20
2018-09-14T10:33:52.618Z,9.10
2018-09-14T10:34:52.657Z,8.10
2018-09-14T10:35:52.601Z,8.10
2018-09-14T10:36:52.685Z,8.50
2018-09-14T10:37:52.621Z,9.90
2018-09-14T10:38:52.632Z,9.90
2018-09-14T10:39:52.675Z,12.80
2018-09-14T10:40:52.772Z,9.20
2018-09-14T10:41:52.717Z,6.10
2018-09-14T10:42:52.762Z,13.40
2018-09-14T10:43:52.711Z,10.80
2018-09-14T10:44:52.719Z,10.20
2018-09-14T10:45:52.773Z,9.00
2018-09-14T10:46:52.762Z,11.50
2018-09-14T10:47:52.751Z,13.80
2018-09-14T10:48:52.798Z,9.70
2018-09-14T10:49:52.771Z,9.90
2018-09-14T10:50:52.809Z,8.50
2018-09-14T10:51:52.817Z,8.20
2018-09-14T10:52:52.902Z,8.30
2018-09-14T10:53:52.845Z,8.90
2018-09-14T10:54:52.906Z,9.20
2018-09-14T10:55:52.916Z,9.30
2018-09-14T10:56:52.886Z,9.00
2018-09-14T10:57:52.906Z,9.20
2018-09-14T10:58:52.922Z,8.30
2018-09-14T10:59:52.892Z,17.30
2018-09-14T11:00:53.005Z,13.80
2018-09-14T11:01:52.934Z,16.70
2018-09-14T11:02:52.921Z,14.60
2018-09-14T11:03:52.987Z,10.00
2018-09-14T11:04:52.959Z,10.80
2018-09-14T11:05:53.005Z,12.20
2018-09-14T11:06:52.985Z,9.20
2018-09-14T11:07:53.255Z,10.70
2018-09-14T11:08:53.027Z,11.10
2018-09-14T11:09:53.072Z,10.20
2018-09-14T11:10:53.059Z,11.20
2018-09-14T11:11:53.051Z,11.40
2018-09-14T11:12:53.127Z,8.80
2018-09-14T11:13:53.217Z,10.20
2018-09-14T11:14:53.111Z,8.60
2018-09-14T11:15:53.090Z,9.00
2018-09-14T11:16:53.138Z,10.70
2018-09-14T11:17:53.139Z,9.30
2018-09-14T11:18:53.223Z,10.60
2018-09-14T11:19:53.159Z,14.00
2018-09-14T11:20:53.150Z,13.60
2018-09-14T11:21:53.200Z,12.50
2018-09-14T11:22:53.179Z,11.80
2018-09-14T11:23:53.196Z,9.80
2018-09-14T11:24:53.337Z,11.30
2018-09-14T11:25:53.232Z,9.10
2018-09-14T11:26:53.219Z,9.70
2018-09-14T11:27:53.279Z,10.50
2018-09-14T11:28:53.245Z,10.00
2018-09-14T11:29:53.326Z,11.40
2018-09-14T11:30:53.388Z,11.30
2018-09-14T11:31:53.290Z,10.30
2018-09-14T11:32:53.372Z,8.50
2018-09-14T11:33:53.316Z,7.40
2018-09-14T11:34:53.316Z,8.10
2018-09-14T11:35:53.348Z,12.80
2018-09-14T11:36:53.358Z,10.10
2018-09-14T11:37:53.509Z,10.30
2018-09-14T11:38:53.385Z,13.90
2018-09-14T11:39:53.497Z,12.70
2018-09-14T11:40:53.455Z,12.80
2018-09-14T11:41:53.456Z,14.50
2018-09-14T11:42:53.450Z,13.40
2018-09-14T11:43:53.467Z,7.30
2018-09-14T11:44:53.473Z,9.50
2018-09-14T11:45:53.505Z,9.00
2018-09-14T11:46:53.491Z,7.70
2018-09-14T11:47:53.491Z,6.30
2018-09-14T11:48:53.540Z,8.90
2018-09-14T11:49:53.520Z,8.00
2018-09-14T11:50:53.551Z,11.50
2018-09-14T11:51:53.569Z,12.00
2018-09-14T11:52:53.589Z,8.70
2018-09-14T11:53:53.580Z,10.70
2018-09-14T11:54:53.638Z,9.20
2018-09-14T11:55:53.653Z,11.50
2018-09-14T11:56:53.605Z,9.30
2018-09-14T11:57:53.652Z,8.20
2018-09-14T11:58:54.353Z,10.60
2018-09-14T11:59:53.682Z,12.20
2018-09-14T12:00:53.675Z,9.80
2018-09-14T12:01:53.733Z,10.20
2018-09-14T12:02:53.696Z,15.30
2018-09-14T12:03:53.695Z,23.50
2018-09-14T12:04:53.747Z,17.50
2018-09-14T12:05:53.812Z,13.90
2018-09-14T12:06:53.759Z,14.60
2018-09-14T12:07:53.750Z,12.20
2018-09-14T12:08:53.779Z,17.30
2018-09-14T12:09:53.943Z,13.20
2018-09-14T12:10:54.118Z,13.60
2018-09-14T12:11:53.826Z,9.50
2018-09-14T12:12:53.808Z,8.90
2018-09-14T12:13:53.962Z,9.90
2018-09-14T12:14:53.832Z,10.60
2018-09-14T12:15:53.853Z,8.90
2018-09-14T12:16:53.945Z,9.10
2018-09-14T12:17:53.930Z,10.70
2018-09-14T12:18:53.913Z,9.90
2018-09-14T12:19:53.918Z,9.10
2018-09-14T12:20:53.938Z,11.50
2018-09-14T12:21:53.989Z,12.00
2018-09-14T12:22:53.988Z,9.90
2018-09-14T12:23:53.961Z,9.70
2018-09-14T12:24:53.990Z,9.90
2018-09-14T12:25:53.983Z,8.80
2018-09-14T12:26:54.021Z,8.20
2018-09-14T12:27:54.005Z,8.90
2018-09-14T12:28:54.063Z,8.50
2018-09-14T12:29:54.070Z,7.60
2018-09-14T12:30:54.040Z,8.60
2018-09-14T12:31:54.181Z,7.40
2018-09-14T12:32:54.116Z,8.10
2018-09-14T12:33:54.080Z,8.50
2018-09-14T12:34:54.111Z,7.70
2018-09-14T12:35:54.116Z,6.50
2018-09-14T12:36:54.136Z,5.90
2018-09-14T12:37:54.247Z,8.10
2018-09-14T12:38:54.176Z,8.20
2018-09-14T12:39:54.194Z,8.70
2018-09-14T12:40:54.217Z,9.90
2018-09-14T12:41:54.195Z,15.20
2018-09-14T12:42:54.224Z,12.10
2018-09-14T12:43:54.329Z,12.90
2018-09-14T12:44:54.261Z,21.20
2018-09-14T12:45:54.275Z,11.30
2018-09-14T12:46:54.313Z,9.70
2018-09-14T12:47:54.282Z,7.80
2018-09-14T12:48:54.373Z,8.30
2018-09-14T12:49:54.298Z,8.20
2018-09-14T12:50:54.327Z,9.30
2018-09-14T12:51:54.361Z,9.70
2018-09-14T12:52:54.352Z,6.30
2018-09-14T12:53:54.353Z,7.30
2018-09-14T12:54:54.397Z,8.90
2018-09-14T12:55:54.388Z,6.10
2018-09-14T12:56:54.404Z,8.00
2018-09-14T12:57:54.413Z,7.50
2018-09-14T12:58:54.440Z,9.90
2018-09-14T12:59:54.439Z,8.20
2018-09-14T13:00:54.469Z,7.50
2018-09-14T13:01:54.479Z,9.30
2018-09-14T13:02:54.481Z,7.60
2018-09-14T13:03:54.589Z,8.40
2018-09-14T13:04:54.509Z,11.70
2018-09-14T13:05:54.510Z,9.40
2018-09-14T13:06:54.647Z,8.90
2018-09-14T13:07:54.531Z,7.50
2018-09-14T13:08:54.585Z,10.70
2018-09-14T13:09:54.561Z,10.40
2018-09-14T13:10:54.591Z,10.20
2018-09-14T13:11:54.603Z,7.80
2018-09-14T13:12:54.773Z,8.40
2018-09-14T13:13:54.632Z,5.90
2018-09-14T13:14:54.676Z,5.30